sensor_id;sensor_type;location;lat;lon;timestamp;P1;durP1;ratioP1;P2;durP2;ratioP2
8540;SDS011;4308;51.294;6.590;2022-08-19T00:01:36;11.57;;;8.23;;
8540;SDS011;4308;51.294;6.590;2022-08-19T00:04:06;12.30;;;8.50;;
8540;SDS011;4308;51.294;6.590;2022-08-19T00:06:35;10.37;;;7.93;;
8540;SDS011;4308;51.294;6.590;2022-08-19T00:09:04;14.47;;;8.47;;
8540;SDS011;4308;51.294;6.590;2022-08-19T00:11:33;11.93;;;8.73;;
8540;SDS011;4308;51.294;6.590;2022-08-19T00:14:00;10.63;;;8.23;;
8540;SDS011;4308;51.294;6.590;2022-08-19T00:16:28;10.63;;;7.80;;
8540;SDS011;4308;51.294;6.590;2022-08-19T00:18:56;9.07;;;7.73;;
8540;SDS011;4308;51.294;6.590;2022-08-19T00:21:24;12.53;;;9.10;;
8540;SDS011;4308;51.294;6.590;2022-08-19T00:23:52;11.93;;;9.00;;
8540;SDS011;4308;51.294;6.590;2022-08-19T00:26:19;9.87;;;8.83;;
8540;SDS011;4308;51.294;6.590;2022-08-19T00:28:47;11.57;;;8.30;;
8540;SDS011;4308;51.294;6.590;2022-08-19T00:31:15;12.60;;;8.73;;
8540;SDS011;4308;51.294;6.590;2022-08-19T00:33:42;11.90;;;9.07;;
8540;SDS011;4308;51.294;6.590;2022-08-19T00:36:10;12.40;;;9.13;;
8540;SDS011;4308;51.294;6.590;2022-08-19T00:38:38;10.97;;;9.57;;
8540;SDS011;4308;51.294;6.590;2022-08-19T00:41:06;14.80;;;10.83;;
8540;SDS011;4308;51.294;6.590;2022-08-19T00:43:34;12.20;;;10.53;;
8540;SDS011;4308;51.294;6.590;2022-08-19T00:46:02;10.97;;;9.83;;
8540;SDS011;4308;51.294;6.590;2022-08-19T00:48:30;13.60;;;10.47;;
8540;SDS011;4308;51.294;6.590;2022-08-19T00:50:58;13.93;;;10.67;;
8540;SDS011;4308;51.294;6.590;2022-08-19T00:53:26;13.20;;;10.20;;
8540;SDS011;4308;51.294;6.590;2022-08-19T00:55:55;10.53;;;9.17;;
8540;SDS011;4308;51.294;6.590;2022-08-19T00:58:24;12.70;;;9.60;;
8540;SDS011;4308;51.294;6.590;2022-08-19T01:00:53;13.60;;;10.10;;
8540;SDS011;4308;51.294;6.590;2022-08-19T01:03:21;15.07;;;11.20;;
8540;SDS011;4308;51.294;6.590;2022-08-19T01:05:49;14.63;;;11.60;;
8540;SDS011;4308;51.294;6.590;2022-08-19T01:08:18;17.63;;;12.37;;
8540;SDS011;4308;51.294;6.590;2022-08-19T01:10:47;14.27;;;12.03;;
8540;SDS011;4308;51.294;6.590;2022-08-19T01:13:16;16.07;;;12.20;;
8540;SDS011;4308;51.294;6.590;2022-08-19T01:15:45;20.47;;;11.87;;
8540;SDS011;4308;51.294;6.590;2022-08-19T01:18:13;21.20;;;13.50;;
8540;SDS011;4308;51.294;6.590;2022-08-19T01:20:42;15.50;;;12.80;;
8540;SDS011;4308;51.294;6.590;2022-08-19T01:23:10;18.43;;;12.77;;
8540;SDS011;4308;51.294;6.590;2022-08-19T01:28:08;13.97;;;9.93;;
8540;SDS011;4308;51.294;6.590;2022-08-19T01:30:36;12.93;;;10.40;;
8540;SDS011;4308;51.294;6.590;2022-08-19T01:33:04;17.33;;;12.97;;
8540;SDS011;4308;51.294;6.590;2022-08-19T01:35:31;12.00;;;9.40;;
8540;SDS011;4308;51.294;6.590;2022-08-19T01:38:01;14.93;;;10.87;;
8540;SDS011;4308;51.294;6.590;2022-08-19T01:40:30;20.67;;;16.07;;
8540;SDS011;4308;51.294;6.590;2022-08-19T01:42:58;20.23;;;14.93;;
8540;SDS011;4308;51.294;6.590;2022-08-19T01:45:26;24.33;;;16.73;;
8540;SDS011;4308;51.294;6.590;2022-08-19T01:47:54;22.97;;;16.43;;
8540;SDS011;4308;51.294;6.590;2022-08-19T01:50:28;20.43;;;16.07;;
8540;SDS011;4308;51.294;6.590;2022-08-19T01:52:56;21.17;;;14.80;;
8540;SDS011;4308;51.294;6.590;2022-08-19T01:55:32;23.70;;;15.17;;
8540;SDS011;4308;51.294;6.590;2022-08-19T01:58:01;20.43;;;15.20;;
8540;SDS011;4308;51.294;6.590;2022-08-19T02:00:30;21.63;;;15.17;;
8540;SDS011;4308;51.294;6.590;2022-08-19T02:03:01;19.80;;;15.60;;
8540;SDS011;4308;51.294;6.590;2022-08-19T02:05:28;23.93;;;17.43;;
8540;SDS011;4308;51.294;6.590;2022-08-19T02:07:56;25.53;;;19.83;;
8540;SDS011;4308;51.294;6.590;2022-08-19T02:10:24;27.40;;;19.20;;
8540;SDS011;4308;51.294;6.590;2022-08-19T02:12:51;23.60;;;18.30;;
8540;SDS011;4308;51.294;6.590;2022-08-19T02:15:20;23.13;;;17.40;;
8540;SDS011;4308;51.294;6.590;2022-08-19T02:17:48;25.30;;;18.37;;
8540;SDS011;4308;51.294;6.590;2022-08-19T02:20:16;27.87;;;18.93;;
8540;SDS011;4308;51.294;6.590;2022-08-19T02:22:43;25.87;;;19.23;;
8540;SDS011;4308;51.294;6.590;2022-08-19T02:25:12;23.70;;;17.30;;
8540;SDS011;4308;51.294;6.590;2022-08-19T02:27:40;23.17;;;16.77;;
8540;SDS011;4308;51.294;6.590;2022-08-19T02:30:09;21.47;;;16.10;;
8540;SDS011;4308;51.294;6.590;2022-08-19T02:32:40;21.57;;;16.30;;
8540;SDS011;4308;51.294;6.590;2022-08-19T02:35:20;20.93;;;15.17;;
8540;SDS011;4308;51.294;6.590;2022-08-19T02:37:48;20.80;;;16.37;;
8540;SDS011;4308;51.294;6.590;2022-08-19T02:40:15;20.90;;;16.70;;
8540;SDS011;4308;51.294;6.590;2022-08-19T02:42:43;23.03;;;17.77;;
8540;SDS011;4308;51.294;6.590;2022-08-19T02:45:14;26.47;;;19.47;;
8540;SDS011;4308;51.294;6.590;2022-08-19T02:47:41;25.93;;;17.97;;
8540;SDS011;4308;51.294;6.590;2022-08-19T02:50:09;26.17;;;19.50;;
8540;SDS011;4308;51.294;6.590;2022-08-19T02:52:36;26.37;;;19.13;;
8540;SDS011;4308;51.294;6.590;2022-08-19T02:55:04;25.17;;;18.83;;
8540;SDS011;4308;51.294;6.590;2022-08-19T02:57:32;23.80;;;18.47;;
8540;SDS011;4308;51.294;6.590;2022-08-19T03:00:00;24.87;;;20.27;;
8540;SDS011;4308;51.294;6.590;2022-08-19T03:02:27;25.17;;;18.90;;
8540;SDS011;4308;51.294;6.590;2022-08-19T03:04:55;25.13;;;19.93;;
8540;SDS011;4308;51.294;6.590;2022-08-19T03:07:22;28.23;;;20.83;;
8540;SDS011;4308;51.294;6.590;2022-08-19T03:09:50;29.43;;;22.07;;
8540;SDS011;4308;51.294;6.590;2022-08-19T03:12:17;35.20;;;24.97;;
8540;SDS011;4308;51.294;6.590;2022-08-19T03:14:45;31.70;;;23.57;;
8540;SDS011;4308;51.294;6.590;2022-08-19T03:17:12;31.23;;;22.00;;
8540;SDS011;4308;51.294;6.590;2022-08-19T03:19:40;33.10;;;23.00;;
8540;SDS011;4308;51.294;6.590;2022-08-19T03:22:07;37.70;;;25.63;;
8540;SDS011;4308;51.294;6.590;2022-08-19T03:24:35;33.27;;;24.93;;
8540;SDS011;4308;51.294;6.590;2022-08-19T03:27:03;31.57;;;23.37;;
8540;SDS011;4308;51.294;6.590;2022-08-19T03:29:31;32.93;;;25.33;;
8540;SDS011;4308;51.294;6.590;2022-08-19T03:32:03;33.63;;;24.77;;
8540;SDS011;4308;51.294;6.590;2022-08-19T03:34:32;37.70;;;26.90;;
8540;SDS011;4308;51.294;6.590;2022-08-19T03:37:02;35.37;;;23.53;;
8540;SDS011;4308;51.294;6.590;2022-08-19T03:39:30;35.47;;;25.27;;
8540;SDS011;4308;51.294;6.590;2022-08-19T03:41:58;29.33;;;20.93;;
8540;SDS011;4308;51.294;6.590;2022-08-19T03:44:45;35.10;;;26.53;;
8540;SDS011;4308;51.294;6.590;2022-08-19T03:47:13;23.77;;;15.53;;
8540;SDS011;4308;51.294;6.590;2022-08-19T03:49:40;33.93;;;24.47;;
8540;SDS011;4308;51.294;6.590;2022-08-19T03:52:07;34.57;;;24.50;;
8540;SDS011;4308;51.294;6.590;2022-08-19T03:54:35;33.50;;;24.03;;
8540;SDS011;4308;51.294;6.590;2022-08-19T03:57:03;41.23;;;26.07;;
8540;SDS011;4308;51.294;6.590;2022-08-19T03:59:35;30.90;;;23.50;;
8540;SDS011;4308;51.294;6.590;2022-08-19T04:02:05;39.57;;;27.20;;
8540;SDS011;4308;51.294;6.590;2022-08-19T04:04:32;42.23;;;28.37;;
8540;SDS011;4308;51.294;6.590;2022-08-19T04:07:00;40.77;;;25.77;;
8540;SDS011;4308;51.294;6.590;2022-08-19T04:09:28;36.10;;;26.40;;
8540;SDS011;4308;51.294;6.590;2022-08-19T04:11:56;30.93;;;22.03;;
8540;SDS011;4308;51.294;6.590;2022-08-19T04:14:25;26.70;;;18.60;;
8540;SDS011;4308;51.294;6.590;2022-08-19T04:16:53;36.40;;;24.10;;
8540;SDS011;4308;51.294;6.590;2022-08-19T04:19:21;40.57;;;26.57;;
8540;SDS011;4308;51.294;6.590;2022-08-19T04:21:49;37.50;;;24.37;;
8540;SDS011;4308;51.294;6.590;2022-08-19T04:24:17;34.57;;;25.33;;
8540;SDS011;4308;51.294;6.590;2022-08-19T04:26:45;27.20;;;18.97;;
8540;SDS011;4308;51.294;6.590;2022-08-19T04:29:14;32.17;;;24.67;;
8540;SDS011;4308;51.294;6.590;2022-08-19T04:31:42;37.93;;;26.03;;
8540;SDS011;4308;51.294;6.590;2022-08-19T04:34:11;36.87;;;24.93;;
8540;SDS011;4308;51.294;6.590;2022-08-19T04:36:40;27.20;;;18.57;;
8540;SDS011;4308;51.294;6.590;2022-08-19T04:39:09;38.17;;;23.57;;
8540;SDS011;4308;51.294;6.590;2022-08-19T04:41:37;36.87;;;25.27;;
8540;SDS011;4308;51.294;6.590;2022-08-19T04:44:05;41.20;;;26.87;;
8540;SDS011;4308;51.294;6.590;2022-08-19T04:46:33;34.93;;;25.10;;
8540;SDS011;4308;51.294;6.590;2022-08-19T04:49:10;30.67;;;20.90;;
8540;SDS011;4308;51.294;6.590;2022-08-19T04:51:40;30.53;;;19.87;;
8540;SDS011;4308;51.294;6.590;2022-08-19T04:54:08;34.23;;;21.60;;
8540;SDS011;4308;51.294;6.590;2022-08-19T04:56:36;43.80;;;29.53;;
8540;SDS011;4308;51.294;6.590;2022-08-19T04:59:04;35.73;;;26.23;;
8540;SDS011;4308;51.294;6.590;2022-08-19T05:01:32;38.10;;;26.07;;
8540;SDS011;4308;51.294;6.590;2022-08-19T05:04:00;30.53;;;20.60;;
8540;SDS011;4308;51.294;6.590;2022-08-19T05:06:28;30.53;;;18.37;;
8540;SDS011;4308;51.294;6.590;2022-08-19T05:08:55;39.47;;;26.70;;
8540;SDS011;4308;51.294;6.590;2022-08-19T05:11:24;35.30;;;24.70;;
8540;SDS011;4308;51.294;6.590;2022-08-19T05:13:52;32.10;;;23.47;;
8540;SDS011;4308;51.294;6.590;2022-08-19T05:16:20;28.57;;;20.93;;
8540;SDS011;4308;51.294;6.590;2022-08-19T05:18:48;27.73;;;19.60;;
8540;SDS011;4308;51.294;6.590;2022-08-19T05:21:17;34.40;;;21.40;;
8540;SDS011;4308;51.294;6.590;2022-08-19T05:23:45;29.00;;;19.67;;
8540;SDS011;4308;51.294;6.590;2022-08-19T05:26:12;33.60;;;24.57;;
8540;SDS011;4308;51.294;6.590;2022-08-19T05:28:40;32.80;;;24.17;;
8540;SDS011;4308;51.294;6.590;2022-08-19T05:31:07;21.77;;;16.33;;
8540;SDS011;4308;51.294;6.590;2022-08-19T05:33:35;22.80;;;16.80;;
8540;SDS011;4308;51.294;6.590;2022-08-19T05:36:02;33.77;;;22.70;;
8540;SDS011;4308;51.294;6.590;2022-08-19T05:38:30;22.00;;;17.00;;
8540;SDS011;4308;51.294;6.590;2022-08-19T05:40:57;31.17;;;22.23;;
8540;SDS011;4308;51.294;6.590;2022-08-19T05:43:24;25.93;;;20.80;;
8540;SDS011;4308;51.294;6.590;2022-08-19T05:45:52;30.13;;;20.63;;
8540;SDS011;4308;51.294;6.590;2022-08-19T05:48:19;31.83;;;20.67;;
8540;SDS011;4308;51.294;6.590;2022-08-19T05:50:46;27.73;;;21.63;;
8540;SDS011;4308;51.294;6.590;2022-08-19T05:53:13;27.57;;;21.20;;
8540;SDS011;4308;51.294;6.590;2022-08-19T05:55:41;22.17;;;17.77;;
8540;SDS011;4308;51.294;6.590;2022-08-19T05:58:08;29.60;;;19.77;;
8540;SDS011;4308;51.294;6.590;2022-08-19T06:00:36;27.13;;;20.30;;
8540;SDS011;4308;51.294;6.590;2022-08-19T06:03:04;21.33;;;16.13;;
8540;SDS011;4308;51.294;6.590;2022-08-19T06:05:38;26.03;;;18.90;;
8540;SDS011;4308;51.294;6.590;2022-08-19T06:08:15;20.60;;;14.47;;
8540;SDS011;4308;51.294;6.590;2022-08-19T06:10:43;20.73;;;16.80;;
8540;SDS011;4308;51.294;6.590;2022-08-19T06:13:10;25.40;;;20.20;;
8540;SDS011;4308;51.294;6.590;2022-08-19T06:15:37;19.70;;;14.60;;
8540;SDS011;4308;51.294;6.590;2022-08-19T06:18:05;26.50;;;20.37;;
8540;SDS011;4308;51.294;6.590;2022-08-19T06:20:35;26.37;;;18.97;;
8540;SDS011;4308;51.294;6.590;2022-08-19T06:23:21;22.13;;;16.57;;
8540;SDS011;4308;51.294;6.590;2022-08-19T06:25:50;18.27;;;13.63;;
8540;SDS011;4308;51.294;6.590;2022-08-19T06:28:17;28.40;;;18.57;;
8540;SDS011;4308;51.294;6.590;2022-08-19T06:30:45;25.63;;;17.47;;
8540;SDS011;4308;51.294;6.590;2022-08-19T06:33:12;25.77;;;16.53;;
8540;SDS011;4308;51.294;6.590;2022-08-19T06:35:40;19.77;;;13.23;;
8540;SDS011;4308;51.294;6.590;2022-08-19T06:38:08;24.17;;;18.80;;
8540;SDS011;4308;51.294;6.590;2022-08-19T06:40:35;27.47;;;19.00;;
8540;SDS011;4308;51.294;6.590;2022-08-19T06:43:03;27.07;;;18.37;;
8540;SDS011;4308;51.294;6.590;2022-08-19T06:45:36;23.50;;;17.53;;
8540;SDS011;4308;51.294;6.590;2022-08-19T06:48:05;24.60;;;18.70;;
8540;SDS011;4308;51.294;6.590;2022-08-19T06:50:32;23.57;;;15.77;;
8540;SDS011;4308;51.294;6.590;2022-08-19T06:53:02;24.80;;;17.50;;
8540;SDS011;4308;51.294;6.590;2022-08-19T06:55:30;23.67;;;16.27;;
8540;SDS011;4308;51.294;6.590;2022-08-19T06:58:01;23.37;;;16.43;;
8540;SDS011;4308;51.294;6.590;2022-08-19T07:00:29;18.63;;;13.50;;
8540;SDS011;4308;51.294;6.590;2022-08-19T07:03:02;20.37;;;15.13;;
8540;SDS011;4308;51.294;6.590;2022-08-19T07:05:38;20.90;;;14.57;;
8540;SDS011;4308;51.294;6.590;2022-08-19T07:08:12;19.60;;;13.43;;
8540;SDS011;4308;51.294;6.590;2022-08-19T07:10:44;17.80;;;12.23;;
8540;SDS011;4308;51.294;6.590;2022-08-19T07:13:11;21.27;;;14.13;;
8540;SDS011;4308;51.294;6.590;2022-08-19T07:15:39;17.80;;;13.80;;
8540;SDS011;4308;51.294;6.590;2022-08-19T07:18:06;18.80;;;13.03;;
8540;SDS011;4308;51.294;6.590;2022-08-19T07:20:38;18.90;;;13.97;;
8540;SDS011;4308;51.294;6.590;2022-08-19T07:23:08;18.73;;;13.10;;
8540;SDS011;4308;51.294;6.590;2022-08-19T07:25:42;27.27;;;17.30;;
8540;SDS011;4308;51.294;6.590;2022-08-19T07:28:10;27.73;;;20.30;;
8540;SDS011;4308;51.294;6.590;2022-08-19T07:30:50;29.10;;;20.60;;
8540;SDS011;4308;51.294;6.590;2022-08-19T07:33:18;30.17;;;19.70;;
8540;SDS011;4308;51.294;6.590;2022-08-19T07:35:46;22.93;;;15.33;;
8540;SDS011;4308;51.294;6.590;2022-08-19T07:38:13;31.97;;;22.40;;
8540;SDS011;4308;51.294;6.590;2022-08-19T07:40:42;30.00;;;20.80;;
8540;SDS011;4308;51.294;6.590;2022-08-19T07:43:10;33.80;;;22.40;;
8540;SDS011;4308;51.294;6.590;2022-08-19T07:45:43;24.37;;;16.77;;
8540;SDS011;4308;51.294;6.590;2022-08-19T07:48:10;27.40;;;19.70;;
8540;SDS011;4308;51.294;6.590;2022-08-19T07:50:37;26.37;;;18.93;;
8540;SDS011;4308;51.294;6.590;2022-08-19T07:53:05;35.83;;;23.57;;
8540;SDS011;4308;51.294;6.590;2022-08-19T07:55:32;33.40;;;19.33;;
8540;SDS011;4308;51.294;6.590;2022-08-19T07:58:09;29.83;;;21.53;;
8540;SDS011;4308;51.294;6.590;2022-08-19T08:00:38;38.97;;;24.60;;
8540;SDS011;4308;51.294;6.590;2022-08-19T08:03:06;31.30;;;21.27;;
8540;SDS011;4308;51.294;6.590;2022-08-19T08:05:33;39.87;;;25.93;;
8540;SDS011;4308;51.294;6.590;2022-08-19T08:08:01;43.17;;;25.40;;
8540;SDS011;4308;51.294;6.590;2022-08-19T08:10:28;36.43;;;23.93;;
8540;SDS011;4308;51.294;6.590;2022-08-19T08:12:56;31.97;;;21.67;;
8540;SDS011;4308;51.294;6.590;2022-08-19T08:15:37;30.17;;;19.77;;
8540;SDS011;4308;51.294;6.590;2022-08-19T08:18:09;29.73;;;21.07;;
8540;SDS011;4308;51.294;6.590;2022-08-19T08:20:38;36.53;;;24.90;;
8540;SDS011;4308;51.294;6.590;2022-08-19T08:23:05;37.37;;;20.60;;
8540;SDS011;4308;51.294;6.590;2022-08-19T08:25:33;28.97;;;19.27;;
8540;SDS011;4308;51.294;6.590;2022-08-19T08:28:02;30.37;;;19.67;;
8540;SDS011;4308;51.294;6.590;2022-08-19T08:30:30;29.63;;;19.33;;
8540;SDS011;4308;51.294;6.590;2022-08-19T08:32:58;33.40;;;21.20;;
8540;SDS011;4308;51.294;6.590;2022-08-19T08:35:28;27.10;;;18.13;;
8540;SDS011;4308;51.294;6.590;2022-08-19T08:37:55;32.73;;;20.43;;
8540;SDS011;4308;51.294;6.590;2022-08-19T08:40:26;27.17;;;18.13;;
8540;SDS011;4308;51.294;6.590;2022-08-19T08:45:42;28.83;;;20.03;;
8540;SDS011;4308;51.294;6.590;2022-08-19T08:48:22;30.87;;;20.23;;
8540;SDS011;4308;51.294;6.590;2022-08-19T08:50:56;33.33;;;19.23;;
8540;SDS011;4308;51.294;6.590;2022-08-19T08:53:25;26.30;;;16.13;;
8540;SDS011;4308;51.294;6.590;2022-08-19T08:56:00;25.70;;;17.73;;
8540;SDS011;4308;51.294;6.590;2022-08-19T08:58:39;23.20;;;16.20;;
8540;SDS011;4308;51.294;6.590;2022-08-19T09:01:20;21.87;;;14.67;;
8540;SDS011;4308;51.294;6.590;2022-08-19T09:03:47;20.20;;;14.80;;
8540;SDS011;4308;51.294;6.590;2022-08-19T09:09:05;19.57;;;13.67;;
8540;SDS011;4308;51.294;6.590;2022-08-19T09:14:37;20.53;;;13.73;;
8540;SDS011;4308;51.294;6.590;2022-08-19T09:17:17;21.07;;;14.20;;
8540;SDS011;4308;51.294;6.590;2022-08-19T09:20:32;20.40;;;13.43;;
8540;SDS011;4308;51.294;6.590;2022-08-19T09:22:42;17.43;;;12.30;;
8540;SDS011;4308;51.294;6.590;2022-08-19T09:25:12;17.60;;;11.67;;
8540;SDS011;4308;51.294;6.590;2022-08-19T09:27:42;17.07;;;12.33;;
8540;SDS011;4308;51.294;6.590;2022-08-19T09:30:11;19.17;;;13.00;;
8540;SDS011;4308;51.294;6.590;2022-08-19T09:32:42;14.80;;;10.20;;
8540;SDS011;4308;51.294;6.590;2022-08-19T09:35:11;17.33;;;12.40;;
8540;SDS011;4308;51.294;6.590;2022-08-19T09:37:40;16.13;;;11.80;;
8540;SDS011;4308;51.294;6.590;2022-08-19T09:40:09;17.37;;;12.13;;
8540;SDS011;4308;51.294;6.590;2022-08-19T09:42:38;16.67;;;12.13;;
8540;SDS011;4308;51.294;6.590;2022-08-19T09:45:19;18.17;;;11.33;;
8540;SDS011;4308;51.294;6.590;2022-08-19T09:47:51;14.77;;;11.03;;
8540;SDS011;4308;51.294;6.590;2022-08-19T09:50:21;14.30;;;10.33;;
8540;SDS011;4308;51.294;6.590;2022-08-19T09:52:49;18.40;;;11.57;;
8540;SDS011;4308;51.294;6.590;2022-08-19T09:55:23;15.57;;;10.03;;
8540;SDS011;4308;51.294;6.590;2022-08-19T09:57:59;13.70;;;9.50;;
8540;SDS011;4308;51.294;6.590;2022-08-19T10:00:27;10.70;;;7.93;;
8540;SDS011;4308;51.294;6.590;2022-08-19T10:02:54;14.37;;;9.40;;
8540;SDS011;4308;51.294;6.590;2022-08-19T10:05:22;12.10;;;8.87;;
8540;SDS011;4308;51.294;6.590;2022-08-19T10:07:52;12.20;;;8.10;;
8540;SDS011;4308;51.294;6.590;2022-08-19T10:10:22;19.10;;;8.80;;
8540;SDS011;4308;51.294;6.590;2022-08-19T10:12:50;12.47;;;8.43;;
8540;SDS011;4308;51.294;6.590;2022-08-19T10:15:18;13.73;;;9.43;;
8540;SDS011;4308;51.294;6.590;2022-08-19T10:17:55;9.63;;;7.33;;
8540;SDS011;4308;51.294;6.590;2022-08-19T10:20:24;14.17;;;9.20;;
8540;SDS011;4308;51.294;6.590;2022-08-19T10:22:51;10.50;;;7.60;;
8540;SDS011;4308;51.294;6.590;2022-08-19T10:25:19;9.33;;;7.07;;
8540;SDS011;4308;51.294;6.590;2022-08-19T10:27:46;10.37;;;7.60;;
8540;SDS011;4308;51.294;6.590;2022-08-19T10:30:17;9.90;;;7.00;;
8540;SDS011;4308;51.294;6.590;2022-08-19T10:32:46;11.07;;;8.57;;
8540;SDS011;4308;51.294;6.590;2022-08-19T10:35:13;13.63;;;8.70;;
8540;SDS011;4308;51.294;6.590;2022-08-19T10:37:47;14.00;;;9.00;;
8540;SDS011;4308;51.294;6.590;2022-08-19T10:40:23;10.07;;;7.30;;
8540;SDS011;4308;51.294;6.590;2022-08-19T10:42:50;13.10;;;7.07;;
8540;SDS011;4308;51.294;6.590;2022-08-19T10:45:18;15.43;;;8.63;;
8540;SDS011;4308;51.294;6.590;2022-08-19T10:47:45;9.70;;;6.87;;
8540;SDS011;4308;51.294;6.590;2022-08-19T10:50:12;9.90;;;7.17;;
8540;SDS011;4308;51.294;6.590;2022-08-19T10:52:40;8.10;;;6.23;;
8540;SDS011;4308;51.294;6.590;2022-08-19T10:55:20;13.33;;;8.17;;
8540;SDS011;4308;51.294;6.590;2022-08-19T10:57:48;11.13;;;8.00;;
8540;SDS011;4308;51.294;6.590;2022-08-19T11:00:28;9.47;;;6.80;;
8540;SDS011;4308;51.294;6.590;2022-08-19T11:02:55;11.23;;;6.83;;
8540;SDS011;4308;51.294;6.590;2022-08-19T11:05:22;14.10;;;8.10;;
8540;SDS011;4308;51.294;6.590;2022-08-19T11:07:50;7.03;;;6.33;;
8540;SDS011;4308;51.294;6.590;2022-08-19T11:10:18;10.47;;;6.90;;
8540;SDS011;4308;51.294;6.590;2022-08-19T11:12:47;9.80;;;6.63;;
8540;SDS011;4308;51.294;6.590;2022-08-19T11:15:15;10.10;;;7.10;;
8540;SDS011;4308;51.294;6.590;2022-08-19T11:17:42;9.33;;;7.33;;
8540;SDS011;4308;51.294;6.590;2022-08-19T11:20:13;10.93;;;6.90;;
8540;SDS011;4308;51.294;6.590;2022-08-19T11:22:41;7.97;;;5.93;;
8540;SDS011;4308;51.294;6.590;2022-08-19T11:25:09;9.77;;;7.00;;
8540;SDS011;4308;51.294;6.590;2022-08-19T11:27:41;11.37;;;6.57;;
8540;SDS011;4308;51.294;6.590;2022-08-19T11:30:09;9.40;;;6.87;;
8540;SDS011;4308;51.294;6.590;2022-08-19T11:32:39;7.67;;;5.97;;
8540;SDS011;4308;51.294;6.590;2022-08-19T11:35:14;9.70;;;6.87;;
8540;SDS011;4308;51.294;6.590;2022-08-19T11:37:42;8.63;;;7.37;;
8540;SDS011;4308;51.294;6.590;2022-08-19T11:40:09;11.97;;;6.77;;
8540;SDS011;4308;51.294;6.590;2022-08-19T11:42:37;8.50;;;6.13;;
8540;SDS011;4308;51.294;6.590;2022-08-19T11:45:05;10.80;;;7.43;;
8540;SDS011;4308;51.294;6.590;2022-08-19T11:47:32;9.00;;;6.30;;
8540;SDS011;4308;51.294;6.590;2022-08-19T11:50:00;7.43;;;6.23;;
8540;SDS011;4308;51.294;6.590;2022-08-19T11:52:27;7.77;;;6.60;;
8540;SDS011;4308;51.294;6.590;2022-08-19T11:54:54;8.00;;;6.90;;
8540;SDS011;4308;51.294;6.590;2022-08-19T11:57:21;10.37;;;6.73;;
8540;SDS011;4308;51.294;6.590;2022-08-19T11:59:50;6.87;;;5.87;;
8540;SDS011;4308;51.294;6.590;2022-08-19T12:02:18;5.90;;;4.87;;
8540;SDS011;4308;51.294;6.590;2022-08-19T12:04:45;10.87;;;5.90;;
8540;SDS011;4308;51.294;6.590;2022-08-19T12:07:13;6.90;;;5.63;;
8540;SDS011;4308;51.294;6.590;2022-08-19T12:09:40;6.57;;;4.70;;
8540;SDS011;4308;51.294;6.590;2022-08-19T12:12:08;7.40;;;4.73;;
8540;SDS011;4308;51.294;6.590;2022-08-19T12:14:37;6.97;;;5.60;;
8540;SDS011;4308;51.294;6.590;2022-08-19T12:17:04;6.57;;;4.73;;
8540;SDS011;4308;51.294;6.590;2022-08-19T12:19:32;5.70;;;4.83;;
8540;SDS011;4308;51.294;6.590;2022-08-19T12:21:59;9.43;;;4.97;;
8540;SDS011;4308;51.294;6.590;2022-08-19T12:24:28;7.40;;;4.33;;
8540;SDS011;4308;51.294;6.590;2022-08-19T12:26:58;10.37;;;4.60;;
8540;SDS011;4308;51.294;6.590;2022-08-19T12:29:29;7.73;;;3.77;;
8540;SDS011;4308;51.294;6.590;2022-08-19T12:31:57;4.40;;;4.00;;
8540;SDS011;4308;51.294;6.590;2022-08-19T12:34:25;7.90;;;4.63;;
8540;SDS011;4308;51.294;6.590;2022-08-19T12:36:52;7.30;;;4.30;;
8540;SDS011;4308;51.294;6.590;2022-08-19T12:39:19;6.43;;;4.30;;
8540;SDS011;4308;51.294;6.590;2022-08-19T12:41:51;6.93;;;4.87;;
8540;SDS011;4308;51.294;6.590;2022-08-19T12:44:21;5.93;;;3.50;;
8540;SDS011;4308;51.294;6.590;2022-08-19T12:46:57;8.57;;;4.27;;
8540;SDS011;4308;51.294;6.590;2022-08-19T12:49:32;5.33;;;4.10;;
8540;SDS011;4308;51.294;6.590;2022-08-19T12:52:21;4.70;;;3.40;;
8540;SDS011;4308;51.294;6.590;2022-08-19T12:54:51;11.33;;;5.00;;
8540;SDS011;4308;51.294;6.590;2022-08-19T12:57:23;6.67;;;4.40;;
8540;SDS011;4308;51.294;6.590;2022-08-19T13:02:32;5.63;;;3.60;;
8540;SDS011;4308;51.294;6.590;2022-08-19T13:05:05;4.67;;;3.47;;
8540;SDS011;4308;51.294;6.590;2022-08-19T13:07:34;5.80;;;3.60;;
8540;SDS011;4308;51.294;6.590;2022-08-19T13:10:01;5.77;;;3.53;;
8540;SDS011;4308;51.294;6.590;2022-08-19T13:12:29;4.67;;;3.20;;
8540;SDS011;4308;51.294;6.590;2022-08-19T13:14:56;5.03;;;3.83;;
8540;SDS011;4308;51.294;6.590;2022-08-19T13:17:24;4.87;;;3.63;;
8540;SDS011;4308;51.294;6.590;2022-08-19T13:19:51;4.43;;;3.77;;
8540;SDS011;4308;51.294;6.590;2022-08-19T13:22:18;8.90;;;3.50;;
8540;SDS011;4308;51.294;6.590;2022-08-19T13:24:45;4.67;;;3.90;;
8540;SDS011;4308;51.294;6.590;2022-08-19T13:27:13;5.73;;;3.90;;
8540;SDS011;4308;51.294;6.590;2022-08-19T13:29:41;5.27;;;3.70;;
8540;SDS011;4308;51.294;6.590;2022-08-19T13:32:08;4.63;;;3.03;;
8540;SDS011;4308;51.294;6.590;2022-08-19T13:34:39;4.83;;;3.47;;
8540;SDS011;4308;51.294;6.590;2022-08-19T13:37:14;14.43;;;3.50;;
8540;SDS011;4308;51.294;6.590;2022-08-19T13:39:41;4.73;;;3.57;;
8540;SDS011;4308;51.294;6.590;2022-08-19T13:42:09;4.40;;;3.43;;
8540;SDS011;4308;51.294;6.590;2022-08-19T13:44:36;3.67;;;3.17;;
8540;SDS011;4308;51.294;6.590;2022-08-19T13:47:04;4.87;;;3.70;;
8540;SDS011;4308;51.294;6.590;2022-08-19T13:49:33;6.60;;;3.40;;
8540;SDS011;4308;51.294;6.590;2022-08-19T13:52:03;4.93;;;3.23;;
8540;SDS011;4308;51.294;6.590;2022-08-19T13:54:31;9.57;;;3.30;;
8540;SDS011;4308;51.294;6.590;2022-08-19T13:56:59;10.07;;;3.53;;
8540;SDS011;4308;51.294;6.590;2022-08-19T13:59:26;5.73;;;4.13;;
8540;SDS011;4308;51.294;6.590;2022-08-19T14:01:57;4.10;;;3.40;;
8540;SDS011;4308;51.294;6.590;2022-08-19T14:04:25;7.87;;;4.67;;
8540;SDS011;4308;51.294;6.590;2022-08-19T14:06:53;4.77;;;3.50;;
8540;SDS011;4308;51.294;6.590;2022-08-19T14:09:20;5.43;;;3.27;;
8540;SDS011;4308;51.294;6.590;2022-08-19T14:11:47;4.83;;;3.77;;
8540;SDS011;4308;51.294;6.590;2022-08-19T14:14:14;6.57;;;3.40;;
8540;SDS011;4308;51.294;6.590;2022-08-19T14:16:42;4.30;;;3.57;;
8540;SDS011;4308;51.294;6.590;2022-08-19T14:19:09;4.83;;;3.03;;
8540;SDS011;4308;51.294;6.590;2022-08-19T14:21:36;5.37;;;3.50;;
8540;SDS011;4308;51.294;6.590;2022-08-19T14:24:07;4.17;;;2.43;;
8540;SDS011;4308;51.294;6.590;2022-08-19T14:26:35;2.93;;;2.20;;
8540;SDS011;4308;51.294;6.590;2022-08-19T14:29:02;3.77;;;3.23;;
8540;SDS011;4308;51.294;6.590;2022-08-19T14:31:29;4.80;;;3.47;;
8540;SDS011;4308;51.294;6.590;2022-08-19T14:33:56;4.33;;;2.80;;
8540;SDS011;4308;51.294;6.590;2022-08-19T14:36:24;3.50;;;2.80;;
8540;SDS011;4308;51.294;6.590;2022-08-19T14:38:51;5.33;;;2.53;;
8540;SDS011;4308;51.294;6.590;2022-08-19T14:41:21;3.47;;;2.73;;
8540;SDS011;4308;51.294;6.590;2022-08-19T14:43:49;4.77;;;2.90;;
8540;SDS011;4308;51.294;6.590;2022-08-19T14:46:22;4.23;;;3.10;;
8540;SDS011;4308;51.294;6.590;2022-08-19T14:48:54;3.87;;;2.90;;
8540;SDS011;4308;51.294;6.590;2022-08-19T14:51:25;5.83;;;2.83;;
8540;SDS011;4308;51.294;6.590;2022-08-19T14:53:53;3.47;;;3.00;;
8540;SDS011;4308;51.294;6.590;2022-08-19T14:56:22;3.67;;;3.00;;
8540;SDS011;4308;51.294;6.590;2022-08-19T14:58:52;5.13;;;3.00;;
8540;SDS011;4308;51.294;6.590;2022-08-19T15:01:20;8.07;;;4.00;;
8540;SDS011;4308;51.294;6.590;2022-08-19T15:03:49;4.70;;;3.73;;
8540;SDS011;4308;51.294;6.590;2022-08-19T15:06:16;4.23;;;3.53;;
8540;SDS011;4308;51.294;6.590;2022-08-19T15:08:43;4.40;;;3.30;;
8540;SDS011;4308;51.294;6.590;2022-08-19T15:11:12;3.43;;;3.10;;
8540;SDS011;4308;51.294;6.590;2022-08-19T15:13:42;4.90;;;3.43;;
8540;SDS011;4308;51.294;6.590;2022-08-19T15:16:10;4.00;;;3.37;;
8540;SDS011;4308;51.294;6.590;2022-08-19T15:18:44;3.27;;;2.97;;
8540;SDS011;4308;51.294;6.590;2022-08-19T15:21:13;3.70;;;2.60;;
8540;SDS011;4308;51.294;6.590;2022-08-19T15:23:41;2.97;;;2.53;;